Time;durP1;ratioP1;P1;durP2;ratioP2;P2;SDS_P1;SDS_P2;PMS_P1;PMS_P2;Temp;Humidity;BMP_temperature;BMP_pressure;BME280_temperature;BME280_humidity;BME280_pressure;Samples;Min_cycle;Max_cycle;Signal;HPM_P1;HPM_P2
2022/08/29 00:00:54;;;;;;;4.35;1.77;;;;;;;;;;4985860;28;20050;-66
2022/08/29 00:03:19;;;;;;;3.53;1.38;;;;;;;;;;5004755;28;20049;-66
2022/08/29 00:05:45;;;;;;;4.78;1.38;;;;;;;;;;4983782;28;20587;-66
2022/08/29 00:08:11;;;;;;;4.97;1.50;;;;;;;;;;4983430;28;20519;-66
2022/08/29 00:10:38;;;;;;;4.72;1.63;;;;;;;;;;5002725;28;20037;-65
2022/08/29 00:13:06;;;;;;;4.65;1.58;;;;;;;;;;4998803;28;20045;-65
2022/08/29 00:15:32;;;;;;;5.05;1.75;;;;;;;;;;5001860;28;20142;-67
2022/08/29 00:17:58;;;;;;;2.00;0.95;;;;;;;;;;4999010;28;20103;-66
2022/08/29 00:20:26;;;;;;;3.65;1.40;;;;;;;;;;5001882;28;20396;-66
2022/08/29 00:22:52;;;;;;;5.25;1.58;;;;;;;;;;5001914;28;20060;-67
2022/08/29 00:25:18;;;;;;;3.53;1.63;;;;;;;;;;5003984;28;20433;-67
2022/08/29 00:27:43;;;;;;;5.55;1.55;;;;;;;;;;4999586;28;20099;-65
2022/08/29 00:30:10;;;;;;;3.00;1.10;;;;;;;;;;5001849;28;20053;-67
2022/08/29 00:32:36;;;;;;;3.75;1.50;;;;;;;;;;5004629;28;20038;-67
2022/08/29 00:35:04;;;;;;;3.58;1.40;;;;;;;;;;5004491;28;20054;-66
2022/08/29 00:37:30;;;;;;;4.32;1.45;;;;;;;;;;5002069;28;20041;-66
2022/08/29 00:39:55;;;;;;;4.53;1.40;;;;;;;;;;5004417;28;20072;-66
2022/08/29 00:42:21;;;;;;;4.65;1.50;;;;;;;;;;5000192;28;20168;-66
2022/08/29 00:44:46;;;;;;;5.28;1.30;;;;;;;;;;4998106;28;20112;-66
2022/08/29 00:47:18;;;;;;;2.78;1.30;;;;;;;;;;4998981;28;20070;-69
2022/08/29 00:49:50;;;;;;;3.60;1.63;;;;;;;;;;4983415;28;20026;-66
2022/08/29 00:52:35;;;;;;;4.05;1.35;;;;;;;;;;5001109;28;20030;-66
2022/08/29 00:55:05;;;;;;;3.03;1.33;;;;;;;;;;5002829;28;20050;-66
2022/08/29 00:57:31;;;;;;;4.03;1.45;;;;;;;;;;5001996;28;20091;-66
2022/08/29 00:59:57;;;;;;;3.70;1.25;;;;;;;;;;5001904;28;20049;-67
2022/08/29 01:02:24;;;;;;;4.75;1.45;;;;;;;;;;4996512;28;20053;-66
2022/08/29 01:04:50;;;;;;;3.67;1.30;;;;;;;;;;5001346;28;20092;-66
2022/08/29 01:07:15;;;;;;;4.75;1.52;;;;;;;;;;5003580;28;20515;-66
2022/08/29 01:09:44;;;;;;;3.20;1.48;;;;;;;;;;5001989;28;20568;-66
2022/08/29 01:12:16;;;;;;;4.20;1.50;;;;;;;;;;4999251;28;20058;-66
2022/08/29 01:14:56;;;;;;;3.33;1.30;;;;;;;;;;5002282;28;20106;-66
2022/08/29 01:17:36;;;;;;;6.07;1.50;;;;;;;;;;4997102;28;21276;-67
2022/08/29 01:20:17;;;;;;;2.78;1.40;;;;;;;;;;5005838;28;20353;-66
2022/08/29 01:22:59;;;;;;;3.22;1.38;;;;;;;;;;4995069;28;20049;-66
2022/08/29 01:25:27;;;;;;;2.30;1.20;;;;;;;;;;5002846;28;20096;-66
2022/08/29 01:28:03;;;;;;;4.90;1.30;;;;;;;;;;5002248;28;20052;-66
2022/08/29 01:30:29;;;;;;;4.00;1.58;;;;;;;;;;5007526;28;21287;-65
2022/08/29 01:32:56;;;;;;;2.67;1.60;;;;;;;;;;5001117;28;20064;-65
2022/08/29 01:35:22;;;;;;;4.05;1.40;;;;;;;;;;5000983;28;20046;-66
2022/08/29 01:37:48;;;;;;;2.70;1.40;;;;;;;;;;5006193;28;20472;-66
2022/08/29 01:40:13;;;;;;;3.72;1.58;;;;;;;;;;5002931;28;20049;-66
2022/08/29 01:42:39;;;;;;;3.17;1.10;;;;;;;;;;5000579;28;20045;-66
2022/08/29 01:45:05;;;;;;;3.97;1.45;;;;;;;;;;4986653;28;20503;-66
2022/08/29 01:47:36;;;;;;;4.32;1.50;;;;;;;;;;5002346;28;20061;-66
2022/08/29 01:50:07;;;;;;;2.95;1.40;;;;;;;;;;5005215;28;20056;-66
2022/08/29 01:52:33;;;;;;;5.25;1.50;;;;;;;;;;5004339;28;20060;-66
2022/08/29 01:54:58;;;;;;;3.70;1.50;;;;;;;;;;5001202;28;20481;-66
2022/08/29 01:57:24;;;;;;;2.70;1.40;;;;;;;;;;4998663;28;20056;-66
2022/08/29 01:59:49;;;;;;;4.28;1.48;;;;;;;;;;4999931;28;20381;-66
2022/08/29 02:02:23;;;;;;;9.68;1.65;;;;;;;;;;5001140;28;20046;-66
2022/08/29 02:04:48;;;;;;;6.53;1.42;;;;;;;;;;5002930;28;20383;-65
2022/08/29 02:07:16;;;;;;;3.47;1.35;;;;;;;;;;5003973;28;20057;-66
2022/08/29 02:09:42;;;;;;;3.40;1.35;;;;;;;;;;5003192;28;20038;-65
2022/08/29 02:12:07;;;;;;;2.85;1.30;;;;;;;;;;4999754;28;20373;-65
2022/08/29 02:14:34;;;;;;;4.40;1.33;;;;;;;;;;5001972;28;20041;-66
2022/08/29 02:17:02;;;;;;;6.25;1.77;;;;;;;;;;4996152;28;20046;-66
2022/08/29 02:19:27;;;;;;;4.35;1.40;;;;;;;;;;5007250;28;20064;-66
2022/08/29 02:21:53;;;;;;;6.85;1.70;;;;;;;;;;5007424;28;20388;-66
2022/08/29 02:24:19;;;;;;;4.68;1.65;;;;;;;;;;5003808;28;20133;-66
2022/08/29 02:26:44;;;;;;;6.80;1.50;;;;;;;;;;5007287;28;20042;-66
2022/08/29 02:29:11;;;;;;;2.10;1.20;;;;;;;;;;5005393;28;20065;-66
2022/08/29 02:31:37;;;;;;;4.10;1.42;;;;;;;;;;5006049;28;20399;-66
2022/08/29 02:34:03;;;;;;;3.60;1.20;;;;;;;;;;5002552;28;20057;-66
2022/08/29 02:36:29;;;;;;;2.47;1.25;;;;;;;;;;5006163;28;20042;-67
2022/08/29 02:38:54;;;;;;;6.00;1.65;;;;;;;;;;5007405;28;20075;-67
2022/08/29 02:41:19;;;;;;;5.88;1.58;;;;;;;;;;5003267;28;20492;-66
2022/08/29 02:43:45;;;;;;;3.17;1.92;;;;;;;;;;5005290;28;20053;-67
2022/08/29 02:46:16;;;;;;;2.88;1.35;;;;;;;;;;5006549;28;20029;-67
2022/08/29 02:48:42;;;;;;;3.28;1.45;;;;;;;;;;5002347;28;20061;-67
2022/08/29 02:51:08;;;;;;;3.60;1.40;;;;;;;;;;5001086;28;20058;-66
2022/08/29 02:53:33;;;;;;;5.65;1.90;;;;;;;;;;5009831;28;20042;-66
2022/08/29 02:55:58;;;;;;;3.25;1.33;;;;;;;;;;5000673;28;20073;-68
2022/08/29 02:58:25;;;;;;;6.65;1.92;;;;;;;;;;5003324;28;20499;-67
2022/08/29 03:00:50;;;;;;;2.13;1.33;;;;;;;;;;5005367;28;20041;-67
2022/08/29 03:03:16;;;;;;;4.40;1.23;;;;;;;;;;5003394;28;20053;-67
2022/08/29 03:05:42;;;;;;;3.55;1.27;;;;;;;;;;5003398;28;20049;-66
2022/08/29 03:08:12;;;;;;;1.80;1.30;;;;;;;;;;5003021;28;20096;-66
2022/08/29 03:10:38;;;;;;;4.85;1.33;;;;;;;;;;5000642;28;20062;-65
2022/08/29 03:13:04;;;;;;;4.88;1.30;;;;;;;;;;5005145;28;20069;-66
2022/08/29 03:15:30;;;;;;;6.47;1.65;;;;;;;;;;5001371;28;20129;-66
2022/08/29 03:17:56;;;;;;;5.47;1.40;;;;;;;;;;5005159;28;20045;-67
2022/08/29 03:20:22;;;;;;;3.17;1.30;;;;;;;;;;5000320;28;21683;-65
2022/08/29 03:22:49;;;;;;;3.28;1.10;;;;;;;;;;4984555;28;20058;-68
2022/08/29 03:25:15;;;;;;;5.32;1.80;;;;;;;;;;5001695;28;20085;-68
2022/08/29 03:27:41;;;;;;;3.38;1.27;;;;;;;;;;5002481;28;20507;-66
2022/08/29 03:30:09;;;;;;;6.43;1.30;;;;;;;;;;5006362;28;20061;-67
2022/08/29 03:32:34;;;;;;;3.22;1.38;;;;;;;;;;5003221;28;20398;-66
2022/08/29 03:35:00;;;;;;;6.38;1.27;;;;;;;;;;5003324;28;20053;-66
2022/08/29 03:37:26;;;;;;;8.50;1.25;;;;;;;;;;5004898;28;20420;-66
2022/08/29 03:39:52;;;;;;;7.22;1.48;;;;;;;;;;5003176;28;20609;-66
2022/08/29 03:42:18;;;;;;;2.95;1.27;;;;;;;;;;5000929;28;20092;-67
2022/08/29 03:44:44;;;;;;;4.20;1.30;;;;;;;;;;5000279;28;20045;-66
2022/08/29 03:47:09;;;;;;;3.33;1.38;;;;;;;;;;4998987;28;20056;-67
2022/08/29 03:49:35;;;;;;;6.22;1.52;;;;;;;;;;5001332;28;20029;-65
2022/08/29 03:52:01;;;;;;;5.65;1.58;;;;;;;;;;4998772;28;20377;-67
2022/08/29 03:54:27;;;;;;;3.75;1.15;;;;;;;;;;4996033;28;20049;-67
2022/08/29 03:56:54;;;;;;;4.18;1.48;;;;;;;;;;5006806;28;20050;-66
2022/08/29 03:59:21;;;;;;;3.58;1.27;;;;;;;;;;5005117;28;20050;-67
2022/08/29 04:01:48;;;;;;;6.85;1.60;;;;;;;;;;4996301;28;20450;-66
2022/08/29 04:05:05;;;;;;;5.00;1.27;;;;;;;;;;5004264;28;20034;-66
2022/08/29 04:07:01;;;;;;;4.50;1.60;;;;;;;;;;5001002;28;20156;-67
2022/08/29 04:09:28;;;;;;;3.72;1.25;;;;;;;;;;5000291;28;20054;-66
2022/08/29 04:11:54;;;;;;;2.05;1.27;;;;;;;;;;4996625;28;20145;-65
2022/08/29 04:14:20;;;;;;;3.10;1.58;;;;;;;;;;4995935;28;20053;-68
2022/08/29 04:16:50;;;;;;;5.38;1.25;;;;;;;;;;5002584;28;20037;-67
2022/08/29 04:19:20;;;;;;;5.13;1.20;;;;;;;;;;5000486;28;20034;-67
2022/08/29 04:21:47;;;;;;;4.72;1.20;;;;;;;;;;5006280;28;20077;-67
2022/08/29 04:24:14;;;;;;;5.75;1.50;;;;;;;;;;5005147;28;20136;-67
2022/08/29 04:26:39;;;;;;;4.35;1.38;;;;;;;;;;5002125;28;20050;-66
2022/08/29 04:29:08;;;;;;;4.32;1.30;;;;;;;;;;5001801;28;20500;-66
2022/08/29 04:31:35;;;;;;;3.83;1.30;;;;;;;;;;5002967;28;20503;-66
2022/08/29 04:34:01;;;;;;;7.60;1.50;;;;;;;;;;4997575;28;20056;-67
2022/08/29 04:36:27;;;;;;;5.80;1.55;;;;;;;;;;4998757;28;20059;-66
2022/08/29 04:38:53;;;;;;;7.22;1.27;;;;;;;;;;4999959;28;20136;-67
2022/08/29 04:41:20;;;;;;;6.47;1.60;;;;;;;;;;4980044;28;20560;-67
2022/08/29 04:43:45;;;;;;;4.38;1.40;;;;;;;;;;5002497;28;20451;-66
2022/08/29 04:46:13;;;;;;;5.28;1.85;;;;;;;;;;5000979;28;20070;-67
2022/08/29 04:48:38;;;;;;;7.30;1.90;;;;;;;;;;5002286;28;20060;-67
2022/08/29 04:51:04;;;;;;;5.65;1.70;;;;;;;;;;5005419;28;20046;-66
2022/08/29 04:53:29;;;;;;;6.20;1.52;;;;;;;;;;4997876;28;20077;-67
2022/08/29 04:55:59;;;;;;;5.32;1.45;;;;;;;;;;4982412;28;20543;-67
2022/08/29 04:58:24;;;;;;;5.47;1.58;;;;;;;;;;5001008;28;20097;-66
2022/08/29 05:00:51;;;;;;;5.75;1.50;;;;;;;;;;5001561;28;20042;-66
2022/08/29 05:03:17;;;;;;;4.93;1.98;;;;;;;;;;5000855;28;20130;-67
2022/08/29 05:05:43;;;;;;;4.90;1.42;;;;;;;;;;5000247;28;20054;-66
2022/08/29 05:08:08;;;;;;;4.75;1.55;;;;;;;;;;5002753;28;20042;-67
2022/08/29 05:10:33;;;;;;;8.27;1.67;;;;;;;;;;5001825;28;20072;-67
2022/08/29 05:12:59;;;;;;;3.05;1.48;;;;;;;;;;4999905;28;20058;-67
2022/08/29 05:15:24;;;;;;;4.43;1.63;;;;;;;;;;4980215;28;20078;-67
2022/08/29 05:17:50;;;;;;;4.90;1.50;;;;;;;;;;5000206;28;20045;-64
2022/08/29 05:20:15;;;;;;;6.60;2.03;;;;;;;;;;4982276;28;20427;-64
2022/08/29 05:22:41;;;;;;;5.95;1.63;;;;;;;;;;4999551;28;20109;-63
2022/08/29 05:25:09;;;;;;;5.25;1.60;;;;;;;;;;4997732;28;20049;-62
2022/08/29 05:27:35;;;;;;;4.03;1.60;;;;;;;;;;5002344;28;20049;-63
2022/08/29 05:30:00;;;;;;;3.85;1.60;;;;;;;;;;5000719;28;20053;-63
2022/08/29 05:32:26;;;;;;;4.35;1.45;;;;;;;;;;4999771;28;20542;-64
2022/08/29 05:34:51;;;;;;;4.45;1.85;;;;;;;;;;4981010;28;20775;-64
2022/08/29 05:37:19;;;;;;;2.58;1.75;;;;;;;;;;5003310;28;20109;-63
2022/08/29 05:39:46;;;;;;;5.20;2.00;;;;;;;;;;5002199;28;20514;-63
2022/08/29 05:42:12;;;;;;;3.45;1.60;;;;;;;;;;4999233;28;20070;-63
2022/08/29 05:44:39;;;;;;;4.78;1.80;;;;;;;;;;4999994;28;20041;-64
2022/08/29 05:47:06;;;;;;;5.78;1.70;;;;;;;;;;4997204;28;20381;-63
2022/08/29 05:49:34;;;;;;;7.93;1.90;;;;;;;;;;4999452;28;20207;-64
2022/08/29 05:52:00;;;;;;;5.75;2.00;;;;;;;;;;4996083;28;20057;-65
2022/08/29 05:54:26;;;;;;;4.55;1.98;;;;;;;;;;5005321;28;20388;-64
2022/08/29 05:56:51;;;;;;;4.47;2.17;;;;;;;;;;5004906;28;20159;-64
2022/08/29 05:59:17;;;;;;;4.68;1.95;;;;;;;;;;5005030;28;20054;-65
2022/08/29 06:01:44;;;;;;;6.22;1.80;;;;;;;;;;5005671;28;20137;-65
2022/08/29 06:04:10;;;;;;;7.47;1.58;;;;;;;;;;5001844;28;20436;-64
2022/08/29 06:06:36;;;;;;;4.60;1.92;;;;;;;;;;4982284;28;20063;-64
2022/08/29 06:09:03;;;;;;;7.35;2.05;;;;;;;;;;5008733;28;20514;-64
2022/08/29 06:11:30;;;;;;;11.60;1.83;;;;;;;;;;5001054;28;20077;-64
2022/08/29 06:13:56;;;;;;;6.75;1.98;;;;;;;;;;5003297;28;20184;-63
2022/08/29 06:16:23;;;;;;;6.88;2.42;;;;;;;;;;5000270;28;20534;-63
2022/08/29 06:18:49;;;;;;;5.53;2.13;;;;;;;;;;5002401;28;20516;-64
2022/08/29 06:21:15;;;;;;;4.30;2.00;;;;;;;;;;4963281;28;20061;-64
2022/08/29 06:23:42;;;;;;;5.15;1.92;;;;;;;;;;5002838;28;20054;-64
2022/08/29 06:26:09;;;;;;;3.88;1.80;;;;;;;;;;4998503;28;20042;-66
2022/08/29 06:28:37;;;;;;;7.95;2.00;;;;;;;;;;5007887;28;20049;-65
2022/08/29 06:31:05;;;;;;;6.13;2.03;;;;;;;;;;5006546;28;20800;-65
2022/08/29 06:33:31;;;;;;;8.35;2.25;;;;;;;;;;5000809;28;20145;-65
2022/08/29 06:35:56;;;;;;;11.75;1.80;;;;;;;;;;5005364;28;20054;-65
2022/08/29 06:38:22;;;;;;;4.20;1.60;;;;;;;;;;5001928;28;20053;-66
2022/08/29 06:40:47;;;;;;;24.75;15.55;;;;;;;;;;4991025;28;20064;-65
2022/08/29 06:43:12;;;;;;;7.85;3.50;;;;;;;;;;4999999;28;20129;-66
2022/08/29 06:45:42;;;;;;;5.28;1.90;;;;;;;;;;5003348;28;20054;-64
2022/08/29 06:48:08;;;;;;;9.63;2.17;;;;;;;;;;5005461;28;20552;-63
2022/08/29 06:50:38;;;;;;;5.15;1.77;;;;;;;;;;5007174;28;20117;-63
2022/08/29 06:53:05;;;;;;;5.20;1.50;;;;;;;;;;5010742;28;20107;-64
2022/08/29 06:55:30;;;;;;;5.32;1.70;;;;;;;;;;5005056;28;20029;-63
2022/08/29 06:57:56;;;;;;;8.98;2.10;;;;;;;;;;5000742;28;20149;-64
2022/08/29 07:00:22;;;;;;;3.42;1.65;;;;;;;;;;4996667;28;20050;-64
2022/08/29 07:02:48;;;;;;;9.38;2.38;;;;;;;;;;5000581;28;20060;-65
2022/08/29 07:05:14;;;;;;;5.22;2.08;;;;;;;;;;4999484;28;20514;-64
2022/08/29 07:07:40;;;;;;;5.07;1.60;;;;;;;;;;5002036;28;20034;-65
2022/08/29 07:10:06;;;;;;;7.32;1.77;;;;;;;;;;5003412;28;20041;-65
2022/08/29 07:12:32;;;;;;;6.95;1.60;;;;;;;;;;5001045;28;20848;-64
2022/08/29 07:14:57;;;;;;;7.22;1.50;;;;;;;;;;5002687;28;20042;-65
2022/08/29 07:17:23;;;;;;;6.32;1.50;;;;;;;;;;4999966;28;20044;-64
2022/08/29 07:19:48;;;;;;;4.50;1.60;;;;;;;;;;5001365;28;20064;-65
2022/08/29 07:22:14;;;;;;;5.63;2.03;;;;;;;;;;4999856;28;20113;-65
2022/08/29 07:24:39;;;;;;;6.68;1.52;;;;;;;;;;5003626;28;20322;-65
2022/08/29 07:27:05;;;;;;;4.88;1.73;;;;;;;;;;5004187;28;20045;-64
2022/08/29 07:29:30;;;;;;;5.15;1.70;;;;;;;;;;4997211;28;20057;-64
2022/08/29 07:31:56;;;;;;;7.93;2.30;;;;;;;;;;4998001;28;20096;-64
2022/08/29 07:34:21;;;;;;;3.83;1.70;;;;;;;;;;5003826;28;20038;-64
2022/08/29 07:36:47;;;;;;;8.63;2.08;;;;;;;;;;5001621;28;20479;-65
2022/08/29 07:39:15;;;;;;;5.13;1.50;;;;;;;;;;5001039;28;20141;-66
2022/08/29 07:41:42;;;;;;;9.02;1.90;;;;;;;;;;5003137;28;20044;-65
2022/08/29 07:44:08;;;;;;;5.20;1.75;;;;;;;;;;4986038;28;20060;-64
2022/08/29 07:46:34;;;;;;;6.70;1.67;;;;;;;;;;4996443;28;20034;-63
2022/08/29 07:48:59;;;;;;;7.57;1.90;;;;;;;;;;4994060;28;20563;-64
2022/08/29 07:51:26;;;;;;;5.80;1.85;;;;;;;;;;4991931;28;20088;-64
2022/08/29 07:53:52;;;;;;;3.88;1.63;;;;;;;;;;4994505;28;20041;-65
2022/08/29 07:56:21;;;;;;;7.80;1.58;;;;;;;;;;4990984;28;20049;-64
2022/08/29 07:58:47;;;;;;;4.18;1.48;;;;;;;;;;4982203;28;20133;-64
2022/08/29 08:01:13;;;;;;;6.40;1.80;;;;;;;;;;5000115;28;20661;-64
2022/08/29 08:03:41;;;;;;;7.57;2.10;;;;;;;;;;5006277;28;20049;-64
2022/08/29 08:06:08;;;;;;;5.78;1.90;;;;;;;;;;4983262;28;20077;-64
2022/08/29 08:08:34;;;;;;;3.17;1.38;;;;;;;;;;5002519;28;20070;-64
2022/08/29 08:11:03;;;;;;;7.78;2.17;;;;;;;;;;5000879;28;20180;-64
2022/08/29 08:13:28;;;;;;;4.93;1.50;;;;;;;;;;4998435;28;20038;-63
2022/08/29 08:15:54;;;;;;;7.65;2.25;;;;;;;;;;4993637;28;20049;-63
2022/08/29 08:18:20;;;;;;;4.32;1.77;;;;;;;;;;4996834;28;20133;-64
2022/08/29 08:20:47;;;;;;;5.22;1.85;;;;;;;;;;4992082;28;20477;-64
2022/08/29 08:23:17;;;;;;;6.57;1.95;;;;;;;;;;4992624;28;20069;-64
2022/08/29 08:25:43;;;;;;;4.35;1.80;;;;;;;;;;4994619;28;20026;-64
2022/08/29 08:28:11;;;;;;;9.32;2.40;;;;;;;;;;4993618;28;20417;-66
2022/08/29 08:30:36;;;;;;;6.47;1.92;;;;;;;;;;4992950;28;20488;-64
2022/08/29 08:33:02;;;;;;;7.50;2.47;;;;;;;;;;4992919;28;20160;-65
2022/08/29 08:35:28;;;;;;;3.53;1.58;;;;;;;;;;5000198;28;20073;-64
2022/08/29 08:37:53;;;;;;;7.95;1.90;;;;;;;;;;5001411;28;20025;-63
2022/08/29 08:40:25;;;;;;;6.30;1.67;;;;;;;;;;4999958;28;20057;-64
2022/08/29 08:42:53;;;;;;;9.13;2.20;;;;;;;;;;5001958;28;20973;-63
2022/08/29 08:45:25;;;;;;;5.18;1.70;;;;;;;;;;5003638;28;20535;-64
2022/08/29 08:48:03;;;;;;;9.13;2.08;;;;;;;;;;5000667;28;20129;-65
2022/08/29 08:50:41;;;;;;;5.47;1.92;;;;;;;;;;5003774;28;20069;-71
2022/08/29 08:53:11;;;;;;;4.53;1.60;;;;;;;;;;5000752;28;20052;-69
2022/08/29 08:55:43;;;;;;;7.55;1.98;;;;;;;;;;5001658;28;20432;-70
2022/08/29 08:58:31;;;;;;;9.88;2.05;;;;;;;;;;5007864;28;20116;-70
2022/08/29 09:00:59;;;;;;;6.35;1.88;;;;;;;;;;5000666;28;20057;-71
2022/08/29 09:03:28;;;;;;;8.20;1.70;;;;;;;;;;4997388;28;20053;-68
2022/08/29 09:06:39;;;;;;;14.90;2.55;;;;;;;;;;4996706;28;20591;-69
2022/08/29 09:09:41;;;;;;;5.03;2.15;;;;;;;;;;4994173;28;20050;-73
2022/08/29 09:12:44;;;;;;;8.17;2.23;;;;;;;;;;4977517;28;20046;-74
2022/08/29 09:15:15;;;;;;;4.93;1.80;;;;;;;;;;5000526;28;20133;-75
2022/08/29 09:17:43;;;;;;;10.38;1.95;;;;;;;;;;5003080;28;20172;-75
2022/08/29 09:20:17;;;;;;;6.07;1.90;;;;;;;;;;4999732;28;20111;-74
2022/08/29 09:22:48;;;;;;;8.73;2.00;;;;;;;;;;5001364;28;20030;-72
2022/08/29 09:25:14;;;;;;;11.35;2.00;;;;;;;;;;4997411;28;20746;-71
2022/08/29 09:27:40;;;;;;;5.18;1.80;;;;;;;;;;4993534;28;20078;-72
2022/08/29 09:30:08;;;;;;;6.63;1.67;;;;;;;;;;4997873;28;20053;-75
2022/08/29 09:32:52;;;;;;;8.85;1.83;;;;;;;;;;4996321;28;20065;-74
2022/08/29 09:35:23;;;;;;;6.40;1.60;;;;;;;;;;4996139;28;20053;-75
2022/08/29 09:38:27;;;;;;;4.43;2.00;;;;;;;;;;4998492;28;20054;-74
2022/08/29 09:40:59;;;;;;;8.00;1.80;;;;;;;;;;5001468;28;20207;-74
2022/08/29 09:43:32;;;;;;;15.85;2.63;;;;;;;;;;4998737;28;20113;-75
2022/08/29 09:46:04;;;;;;;8.80;2.50;;;;;;;;;;4983662;28;20132;-72
2022/08/29 09:48:31;;;;;;;4.78;1.67;;;;;;;;;;5002535;28;20046;-67
2022/08/29 09:51:20;;;;;;;11.50;2.10;;;;;;;;;;5001105;28;20057;-68
2022/08/29 09:53:46;;;;;;;4.25;1.52;;;;;;;;;;5005209;28;20092;-68
2022/08/29 09:56:22;;;;;;;10.07;1.85;;;;;;;;;;4984309;28;20046;-68
2022/08/29 09:59:29;;;;;;;6.88;1.67;;;;;;;;;;4994159;28;20042;-68
2022/08/29 10:02:19;;;;;;;4.43;1.85;;;;;;;;;;4997710;28;20053;-68
2022/08/29 10:04:58;;;;;;;8.73;3.55;;;;;;;;;;5001424;28;20054;-62
2022/08/29 10:07:33;;;;;;;6.80;2.00;;;;;;;;;;4998138;28;20504;-64
2022/08/29 10:10:16;;;;;;;6.60;2.13;;;;;;;;;;5003390;28;20071;-64
2022/08/29 10:12:58;;;;;;;6.50;1.63;;;;;;;;;;5000892;28;20076;-63
2022/08/29 10:15:28;;;;;;;6.67;1.73;;;;;;;;;;5000302;28;20069;-63
2022/08/29 10:18:23;;;;;;;8.98;1.90;;;;;;;;;;5000519;28;20121;-63
2022/08/29 10:21:06;;;;;;;4.60;1.92;;;;;;;;;;4996892;28;20050;-65
2022/08/29 10:24:09;;;;;;;6.45;1.70;;;;;;;;;;5001142;28;20050;-64
2022/08/29 10:26:50;;;;;;;6.28;1.60;;;;;;;;;;5001976;28;20049;-64
2022/08/29 10:29:37;;;;;;;8.57;2.33;;;;;;;;;;5001055;28;20505;-64
2022/08/29 10:32:18;;;;;;;6.55;1.80;;;;;;;;;;5001413;28;20051;-64
2022/08/29 10:34:59;;;;;;;9.68;2.13;;;;;;;;;;4996987;28;20045;-64
2022/08/29 10:37:36;;;;;;;9.45;1.70;;;;;;;;;;5000417;28;20464;-64
2022/08/29 10:40:09;;;;;;;7.45;1.88;;;;;;;;;;5005086;28;20113;-64
2022/08/29 10:42:36;;;;;;;;;;;;;;;;;;4999088;28;20562;-66
2022/08/29 10:45:17;;;;;;;6.13;1.73;;;;;;;;;;5003348;28;19971;-68
2022/08/29 10:47:52;;;;;;;6.50;1.90;;;;;;;;;;5005044;28;20108;-66
2022/08/29 10:50:52;;;;;;;4.78;1.80;;;;;;;;;;5003596;28;20215;-67
2022/08/29 10:53:24;;;;;;;7.53;1.63;;;;;;;;;;5001497;28;21941;-68
2022/08/29 10:56:09;;;;;;;5.78;1.77;;;;;;;;;;4999768;28;20050;-65
2022/08/29 10:58:41;;;;;;;5.85;1.85;;;;;;;;;;5000380;28;20463;-67
2022/08/29 11:01:20;;;;;;;7.47;1.80;;;;;;;;;;4994950;28;20140;-65
2022/08/29 11:04:04;;;;;;;6.95;1.88;;;;;;;;;;5000488;28;20040;-66
2022/08/29 11:07:01;;;;;;;4.78;1.55;;;;;;;;;;5002457;28;20053;-64
2022/08/29 11:09:32;;;;;;;4.47;1.60;;;;;;;;;;5001729;28;20069;-65
2022/08/29 11:12:35;;;;;;;7.35;1.65;;;;;;;;;;5000573;28;20041;-64
2022/08/29 11:15:03;;;;;;;;;;;;;;;;;;4998407;28;20042;-63
2022/08/29 11:17:34;;;;;;;6.65;1.83;;;;;;;;;;5006202;28;19980;-68
2022/08/29 11:20:16;;;;;;;7.45;2.20;;;;;;;;;;5003784;28;20072;-64
2022/08/29 11:22:41;;;;;;;9.00;1.80;;;;;;;;;;5005457;28;20046;-63
2022/08/29 11:25:14;;;;;;;8.63;1.97;;;;;;;;;;4999925;28;20114;-63
2022/08/29 11:28:02;;;;;;;10.70;2.10;;;;;;;;;;4997269;28;20297;-65
2022/08/29 11:30:42;;;;;;;5.30;1.83;;;;;;;;;;5006456;28;21991;-64
2022/08/29 11:33:45;;;;;;;5.82;1.60;;;;;;;;;;5000276;28;20046;-68
2022/08/29 11:36:29;;;;;;;;;;;;;;;;;;4986049;28;20061;-63
2022/08/29 11:39:27;;;;;;;4.93;1.73;;;;;;;;;;5003883;28;20283;-65
2022/08/29 11:41:56;;;;;;;4.18;2.00;;;;;;;;;;4999771;28;20089;-65
2022/08/29 11:44:38;;;;;;;4.97;2.10;;;;;;;;;;4999315;28;20826;-65
2022/08/29 11:47:28;;;;;;;5.43;1.90;;;;;;;;;;4994326;28;20172;-67
2022/08/29 11:49:54;;;;;;;6.47;1.77;;;;;;;;;;4980914;28;20164;-66
2022/08/29 11:52:27;;;;;;;3.83;1.88;;;;;;;;;;5000222;28;20058;-63
2022/08/29 11:55:13;;;;;;;8.68;2.05;;;;;;;;;;4996322;28;20049;-65
2022/08/29 11:57:52;;;;;;;3.15;1.60;;;;;;;;;;5002741;28;20619;-66
2022/08/29 12:00:40;;;;;;;4.82;1.60;;;;;;;;;;5000624;28;20050;-65
2022/08/29 12:03:28;;;;;;;6.25;1.95;;;;;;;;;;4996216;28;20046;-63
2022/08/29 12:05:59;;;;;;;6.65;1.90;;;;;;;;;;5000757;28;20077;-64
2022/08/29 12:08:36;;;;;;;3.80;1.73;;;;;;;;;;4997290;28;20126;-63
2022/08/29 12:11:03;;;;;;;4.90;1.75;;;;;;;;;;5002743;28;20041;-68
2022/08/29 12:13:43;;;;;;;5.75;1.90;;;;;;;;;;4997708;28;20038;-64
2022/08/29 12:16:10;;;;;;;4.25;1.90;;;;;;;;;;4999669;28;20049;-66
2022/08/29 12:18:51;;;;;;;10.40;2.13;;;;;;;;;;5002184;28;20042;-65
2022/08/29 12:21:45;;;;;;;4.35;1.60;;;;;;;;;;4993430;28;20041;-65
2022/08/29 12:24:28;;;;;;;4.80;1.90;;;;;;;;;;4995816;28;20658;-63
2022/08/29 12:26:53;;;;;;;6.50;2.05;;;;;;;;;;5000593;28;20030;-69
2022/08/29 12:29:41;;;;;;;5.43;1.65;;;;;;;;;;4999534;28;20515;-68
2022/08/29 12:32:49;;;;;;;8.52;2.25;;;;;;;;;;4981450;28;20474;-67
2022/08/29 12:35:46;;;;;;;7.82;2.28;;;;;;;;;;4920268;29;20052;-68
2022/08/29 12:38:21;;;;;;;7.55;2.00;;;;;;;;;;4992997;28;20050;-65
2022/08/29 12:41:03;;;;;;;6.18;2.30;;;;;;;;;;4998722;28;20058;-64
2022/08/29 12:43:34;;;;;;;4.88;1.80;;;;;;;;;;4998142;28;20053;-65
2022/08/29 12:46:07;;;;;;;5.87;1.93;;;;;;;;;;4994712;28;20062;-65
2022/08/29 12:48:39;;;;;;;4.30;1.80;;;;;;;;;;5000896;28;20377;-66
2022/08/29 12:51:05;;;;;;;10.02;1.83;;;;;;;;;;5002607;28;20033;-64
2022/08/29 12:53:33;;;;;;;4.60;1.88;;;;;;;;;;4996842;28;20042;-66
2022/08/29 12:56:19;;;;;;;7.20;2.28;;;;;;;;;;4987815;28;20064;-66
2022/08/29 12:58:50;;;;;;;5.95;1.70;;;;;;;;;;4998087;28;20076;-65
2022/08/29 13:01:37;;;;;;;8.32;1.60;;;;;;;;;;5000510;28;20054;-66
2022/08/29 13:04:08;;;;;;;9.13;2.10;;;;;;;;;;5000619;28;20460;-65
2022/08/29 13:06:34;;;;;;;7.50;1.83;;;;;;;;;;5004232;28;20057;-65
2022/08/29 13:09:00;;;;;;;4.60;1.77;;;;;;;;;;4998493;28;20556;-64
2022/08/29 13:11:29;;;;;;;4.85;1.77;;;;;;;;;;4997454;28;20538;-66
2022/08/29 13:14:11;;;;;;;11.85;2.05;;;;;;;;;;4994718;28;20074;-65
2022/08/29 13:16:40;;;;;;;;;;;;;;;;;;4998097;28;20059;-63
2022/08/29 13:19:20;;;;;;;5.65;1.70;;;;;;;;;;5000120;28;19996;-65
2022/08/29 13:21:48;;;;;;;4.65;1.50;;;;;;;;;;5001191;28;20366;-65
2022/08/29 13:24:20;;;;;;;6.93;2.00;;;;;;;;;;4996898;28;20026;-64
2022/08/29 13:26:55;;;;;;;4.60;1.60;;;;;;;;;;5000435;28;20022;-64
2022/08/29 13:29:32;;;;;;;5.10;1.50;;;;;;;;;;4989257;28;20128;-65
2022/08/29 13:32:27;;;;;;;4.55;1.48;;;;;;;;;;5000882;28;20073;-65
2022/08/29 13:35:05;;;;;;;4.15;2.00;;;;;;;;;;4992800;28;20050;-65
2022/08/29 13:37:39;;;;;;;4.85;2.22;;;;;;;;;;5002468;28;20045;-64
2022/08/29 13:40:29;;;;;;;3.28;1.33;;;;;;;;;;5002689;28;20057;-64
2022/08/29 13:42:55;;;;;;;4.28;1.58;;;;;;;;;;4996681;28;20038;-67
2022/08/29 13:45:22;;;;;;;5.85;1.70;;;;;;;;;;4998203;28;20034;-63
2022/08/29 13:47:52;;;;;;;5.15;1.95;;;;;;;;;;5002492;28;20064;-64
2022/08/29 13:50:18;;;;;;;5.75;1.77;;;;;;;;;;5002928;28;20053;-64
2022/08/29 13:52:43;;;;;;;5.47;1.63;;;;;;;;;;4984603;28;20115;-64
2022/08/29 13:55:09;;;;;;;6.28;1.95;;;;;;;;;;5004614;28;20622;-64
2022/08/29 13:57:37;;;;;;;5.28;1.75;;;;;;;;;;4998309;28;20030;-68
2022/08/29 14:00:05;;;;;;;4.72;1.65;;;;;;;;;;5003890;28;20101;-66
2022/08/29 14:02:31;;;;;;;4.97;1.75;;;;;;;;;;4999035;28;20484;-66
2022/08/29 14:04:56;;;;;;;5.93;1.70;;;;;;;;;;5000541;28;20054;-67
2022/08/29 14:07:25;;;;;;;6.10;1.73;;;;;;;;;;5000813;28;20497;-69
2022/08/29 14:09:52;;;;;;;5.60;1.73;;;;;;;;;;5001822;28;20071;-66
2022/08/29 14:12:17;;;;;;;6.07;1.33;;;;;;;;;;4985766;28;20030;-66
2022/08/29 14:14:43;;;;;;;2.92;1.50;;;;;;;;;;5006959;28;20038;-67
2022/08/29 14:17:10;;;;;;;4.50;1.50;;;;;;;;;;4987279;28;20042;-69
2022/08/29 14:19:35;;;;;;;3.42;1.73;;;;;;;;;;5006077;28;20041;-68
2022/08/29 14:22:01;;;;;;;6.70;1.67;;;;;;;;;;5002974;28;20046;-67
2022/08/29 14:24:28;;;;;;;7.38;1.92;;;;;;;;;;5006014;28;20053;-69
2022/08/29 14:26:54;;;;;;;6.97;2.33;;;;;;;;;;5009065;28;20046;-69
2022/08/29 14:29:19;;;;;;;7.47;1.67;;;;;;;;;;5002034;28;20096;-68
2022/08/29 14:31:46;;;;;;;6.20;1.83;;;;;;;;;;5003291;28;20096;-68
2022/08/29 14:34:11;;;;;;;4.72;2.20;;;;;;;;;;5004573;28;20562;-69
2022/08/29 14:36:37;;;;;;;9.02;1.98;;;;;;;;;;5006340;28;20042;-68
2022/08/29 14:39:03;;;;;;;3.42;1.67;;;;;;;;;;4987600;28;20391;-68
2022/08/29 14:41:29;;;;;;;4.45;1.63;;;;;;;;;;5000390;28;20045;-68
2022/08/29 14:43:54;;;;;;;4.05;1.30;;;;;;;;;;5002403;28;20396;-68
2022/08/29 14:46:20;;;;;;;3.97;1.70;;;;;;;;;;5000353;28;20118;-68
2022/08/29 14:48:45;;;;;;;5.03;1.67;;;;;;;;;;5008433;28;20046;-68
2022/08/29 14:51:11;;;;;;;6.47;1.80;;;;;;;;;;5005035;28;20030;-68
2022/08/29 14:53:36;;;;;;;4.18;1.58;;;;;;;;;;5004400;28;20104;-68
2022/08/29 14:56:05;;;;;;;3.55;1.80;;;;;;;;;;5000209;28;20137;-68
2022/08/29 14:58:30;;;;;;;4.50;1.60;;;;;;;;;;5002882;28;20050;-68
2022/08/29 15:00:56;;;;;;;5.25;2.03;;;;;;;;;;5005710;28;20050;-67
2022/08/29 15:03:21;;;;;;;4.28;1.90;;;;;;;;;;5002530;28;21409;-68